sensor_id;sensor_type;location;lat;lon;timestamp;temperature;humidity
63313;DHT22;49442;45.640;13.812;2023-10-19T00:00:36;13.90;99.90
63313;DHT22;49442;45.640;13.812;2023-10-19T00:03:04;13.80;99.90
63313;DHT22;49442;45.640;13.812;2023-10-19T00:05:32;13.90;99.90
63313;DHT22;49442;45.640;13.812;2023-10-19T00:08:05;13.90;99.90
63313;DHT22;49442;45.640;13.812;2023-10-19T00:10:41;14.00;99.90
63313;DHT22;49442;45.640;13.812;2023-10-19T00:13:09;14.00;99.90
63313;DHT22;49442;45.640;13.812;2023-10-19T00:15:43;14.00;99.90
63313;DHT22;49442;45.640;13.812;2023-10-19T00:18:19;14.10;99.90
63313;DHT22;49442;45.640;13.812;2023-10-19T00:20:50;14.10;99.90
63313;DHT22;49442;45.640;13.812;2023-10-19T00:23:18;14.10;99.90
63313;DHT22;49442;45.640;13.812;2023-10-19T00:25:44;14.10;99.90
63313;DHT22;49442;45.640;13.812;2023-10-19T00:28:18;14.20;99.90
63313;DHT22;49442;45.640;13.812;2023-10-19T00:30:45;14.20;99.90
63313;DHT22;49442;45.640;13.812;2023-10-19T00:33:12;14.20;99.90
63313;DHT22;49442;45.640;13.812;2023-10-19T00:35:50;14.20;99.90
63313;DHT22;49442;45.640;13.812;2023-10-19T00:38:42;14.20;99.90
63313;DHT22;49442;45.640;13.812;2023-10-19T00:41:25;14.30;99.90
63313;DHT22;49442;45.640;13.812;2023-10-19T00:43:58;14.30;99.90
63313;DHT22;49442;45.640;13.812;2023-10-19T00:46:37;14.30;99.90
63313;DHT22;49442;45.640;13.812;2023-10-19T00:49:09;14.40;99.90
63313;DHT22;49442;45.640;13.812;2023-10-19T00:51:46;14.30;99.90
63313;DHT22;49442;45.640;13.812;2023-10-19T00:54:32;14.40;99.90
63313;DHT22;49442;45.640;13.812;2023-10-19T00:57:00;14.40;99.90
63313;DHT22;49442;45.640;13.812;2023-10-19T00:59:32;14.50;99.90
63313;DHT22;49442;45.640;13.812;2023-10-19T01:02:02;14.50;99.90
63313;DHT22;49442;45.640;13.812;2023-10-19T01:04:49;14.50;99.90
63313;DHT22;49442;45.640;13.812;2023-10-19T01:07:27;14.50;99.90
63313;DHT22;49442;45.640;13.812;2023-10-19T01:09:58;14.50;99.90
63313;DHT22;49442;45.640;13.812;2023-10-19T01:12:24;14.50;99.90
63313;DHT22;49442;45.640;13.812;2023-10-19T01:17:40;14.50;99.90
63313;DHT22;49442;45.640;13.812;2023-10-19T01:20:14;14.60;99.90
63313;DHT22;49442;45.640;13.812;2023-10-19T01:25:45;14.60;99.90
63313;DHT22;49442;45.640;13.812;2023-10-19T01:28:20;14.60;99.90
63313;DHT22;49442;45.640;13.812;2023-10-19T01:30:50;14.60;99.90
63313;DHT22;49442;45.640;13.812;2023-10-19T01:33:18;14.60;99.90
63313;DHT22;49442;45.640;13.812;2023-10-19T01:35:44;14.60;99.90
63313;DHT22;49442;45.640;13.812;2023-10-19T01:38:29;14.60;99.90
63313;DHT22;49442;45.640;13.812;2023-10-19T01:41:02;14.60;99.90
63313;DHT22;49442;45.640;13.812;2023-10-19T01:43:32;14.60;99.90
63313;DHT22;49442;45.640;13.812;2023-10-19T01:45:58;14.60;99.90
63313;DHT22;49442;45.640;13.812;2023-10-19T01:48:30;14.70;99.90
63313;DHT22;49442;45.640;13.812;2023-10-19T01:51:03;14.70;99.90
63313;DHT22;49442;45.640;13.812;2023-10-19T01:53:33;14.60;99.90
63313;DHT22;49442;45.640;13.812;2023-10-19T01:56:05;14.60;99.90
63313;DHT22;49442;45.640;13.812;2023-10-19T01:58:31;14.60;99.90
63313;DHT22;49442;45.640;13.812;2023-10-19T02:01:02;14.60;99.90
63313;DHT22;49442;45.640;13.812;2023-10-19T02:03:33;14.70;99.90
63313;DHT22;49442;45.640;13.812;2023-10-19T02:05:59;14.70;99.90
63313;DHT22;49442;45.640;13.812;2023-10-19T02:08:26;14.70;99.90
63313;DHT22;49442;45.640;13.812;2023-10-19T02:10:52;14.70;99.90
63313;DHT22;49442;45.640;13.812;2023-10-19T02:13:19;14.70;99.90
63313;DHT22;49442;45.640;13.812;2023-10-19T02:15:45;14.70;99.90
63313;DHT22;49442;45.640;13.812;2023-10-19T02:18:11;14.70;99.90
63313;DHT22;49442;45.640;13.812;2023-10-19T02:20:37;14.70;99.90
63313;DHT22;49442;45.640;13.812;2023-10-19T02:23:07;14.70;99.90
63313;DHT22;49442;45.640;13.812;2023-10-19T02:25:34;14.70;99.90
63313;DHT22;49442;45.640;13.812;2023-10-19T02:28:06;14.70;99.90
63313;DHT22;49442;45.640;13.812;2023-10-19T02:30:35;14.70;99.90
63313;DHT22;49442;45.640;13.812;2023-10-19T02:33:01;14.80;99.90
63313;DHT22;49442;45.640;13.812;2023-10-19T02:35:28;14.80;99.90
63313;DHT22;49442;45.640;13.812;2023-10-19T02:37:54;14.80;99.90
63313;DHT22;49442;45.640;13.812;2023-10-19T02:40:20;14.80;99.90
63313;DHT22;49442;45.640;13.812;2023-10-19T02:42:48;14.90;99.90
63313;DHT22;49442;45.640;13.812;2023-10-19T02:45:15;14.80;99.90
63313;DHT22;49442;45.640;13.812;2023-10-19T02:47:43;14.90;99.90
63313;DHT22;49442;45.640;13.812;2023-10-19T02:50:09;14.90;99.90
63313;DHT22;49442;45.640;13.812;2023-10-19T02:52:39;14.90;99.90
63313;DHT22;49442;45.640;13.812;2023-10-19T02:55:09;14.90;99.90
63313;DHT22;49442;45.640;13.812;2023-10-19T02:57:36;14.90;99.90
63313;DHT22;49442;45.640;13.812;2023-10-19T03:00:06;14.90;99.90
63313;DHT22;49442;45.640;13.812;2023-10-19T03:02:40;15.00;99.90
63313;DHT22;49442;45.640;13.812;2023-10-19T03:05:07;15.10;99.90
63313;DHT22;49442;45.640;13.812;2023-10-19T03:07:39;15.10;99.90
63313;DHT22;49442;45.640;13.812;2023-10-19T03:10:06;15.10;99.90
63313;DHT22;49442;45.640;13.812;2023-10-19T03:12:32;15.10;99.90
63313;DHT22;49442;45.640;13.812;2023-10-19T03:14:58;15.10;99.90
63313;DHT22;49442;45.640;13.812;2023-10-19T03:17:26;15.10;99.90
63313;DHT22;49442;45.640;13.812;2023-10-19T03:19:53;15.10;99.90
63313;DHT22;49442;45.640;13.812;2023-10-19T03:22:19;15.10;99.90
63313;DHT22;49442;45.640;13.812;2023-10-19T03:24:46;15.10;99.90
63313;DHT22;49442;45.640;13.812;2023-10-19T03:27:13;15.10;99.90
63313;DHT22;49442;45.640;13.812;2023-10-19T03:29:46;15.10;99.90
63313;DHT22;49442;45.640;13.812;2023-10-19T03:32:14;15.10;99.90
63313;DHT22;49442;45.640;13.812;2023-10-19T03:34:41;15.10;99.90
63313;DHT22;49442;45.640;13.812;2023-10-19T03:37:12;15.10;99.90
63313;DHT22;49442;45.640;13.812;2023-10-19T03:39:40;15.10;99.90
63313;DHT22;49442;45.640;13.812;2023-10-19T03:42:07;15.10;99.90
63313;DHT22;49442;45.640;13.812;2023-10-19T03:44:33;15.10;99.90
63313;DHT22;49442;45.640;13.812;2023-10-19T03:47:15;15.10;99.90
63313;DHT22;49442;45.640;13.812;2023-10-19T03:49:44;15.10;99.90
63313;DHT22;49442;45.640;13.812;2023-10-19T03:52:12;15.20;99.90
63313;DHT22;49442;45.640;13.812;2023-10-19T03:54:38;15.20;99.90
63313;DHT22;49442;45.640;13.812;2023-10-19T03:57:05;15.20;99.90
63313;DHT22;49442;45.640;13.812;2023-10-19T03:59:40;15.10;99.90
63313;DHT22;49442;45.640;13.812;2023-10-19T04:02:07;15.10;99.90
63313;DHT22;49442;45.640;13.812;2023-10-19T04:04:42;15.10;99.90
63313;DHT22;49442;45.640;13.812;2023-10-19T04:07:15;15.10;99.90
63313;DHT22;49442;45.640;13.812;2023-10-19T04:09:50;15.10;99.90
63313;DHT22;49442;45.640;13.812;2023-10-19T04:12:36;15.10;99.90
63313;DHT22;49442;45.640;13.812;2023-10-19T04:15:04;15.10;99.90
63313;DHT22;49442;45.640;13.812;2023-10-19T04:17:47;15.10;99.90
63313;DHT22;49442;45.640;13.812;2023-10-19T04:20:15;15.20;99.90
63313;DHT22;49442;45.640;13.812;2023-10-19T04:22:44;15.10;99.90
63313;DHT22;49442;45.640;13.812;2023-10-19T04:25:10;15.20;99.90
63313;DHT22;49442;45.640;13.812;2023-10-19T04:27:39;15.20;99.90
63313;DHT22;49442;45.640;13.812;2023-10-19T04:30:08;15.20;99.90
63313;DHT22;49442;45.640;13.812;2023-10-19T04:32:42;15.20;99.90
63313;DHT22;49442;45.640;13.812;2023-10-19T04:35:07;15.20;99.90
63313;DHT22;49442;45.640;13.812;2023-10-19T04:37:36;15.20;99.90
63313;DHT22;49442;45.640;13.812;2023-10-19T04:40:03;15.20;99.90
63313;DHT22;49442;45.640;13.812;2023-10-19T04:42:29;15.20;99.90
63313;DHT22;49442;45.640;13.812;2023-10-19T04:44:54;15.20;99.90
63313;DHT22;49442;45.640;13.812;2023-10-19T04:47:21;15.20;99.90
63313;DHT22;49442;45.640;13.812;2023-10-19T04:49:47;15.20;99.90
63313;DHT22;49442;45.640;13.812;2023-10-19T04:52:13;15.20;99.90
63313;DHT22;49442;45.640;13.812;2023-10-19T04:54:39;15.20;99.90
63313;DHT22;49442;45.640;13.812;2023-10-19T04:57:04;15.30;99.90
63313;DHT22;49442;45.640;13.812;2023-10-19T04:59:30;15.30;99.90
63313;DHT22;49442;45.640;13.812;2023-10-19T05:01:59;15.30;99.90
63313;DHT22;49442;45.640;13.812;2023-10-19T05:04:27;15.30;99.90
63313;DHT22;49442;45.640;13.812;2023-10-19T05:06:53;15.30;99.90
63313;DHT22;49442;45.640;13.812;2023-10-19T05:09:19;15.30;99.90
63313;DHT22;49442;45.640;13.812;2023-10-19T05:11:45;15.30;99.90
63313;DHT22;49442;45.640;13.812;2023-10-19T05:14:14;15.30;99.90
63313;DHT22;49442;45.640;13.812;2023-10-19T05:16:40;15.40;99.90
63313;DHT22;49442;45.640;13.812;2023-10-19T05:19:06;15.30;99.90
63313;DHT22;49442;45.640;13.812;2023-10-19T05:21:32;15.40;99.90
63313;DHT22;49442;45.640;13.812;2023-10-19T05:23:59;15.40;99.90
63313;DHT22;49442;45.640;13.812;2023-10-19T05:26:28;15.40;99.90
63313;DHT22;49442;45.640;13.812;2023-10-19T05:28:54;15.40;99.90
63313;DHT22;49442;45.640;13.812;2023-10-19T05:31:22;15.50;99.90
63313;DHT22;49442;45.640;13.812;2023-10-19T05:33:48;15.50;99.90
63313;DHT22;49442;45.640;13.812;2023-10-19T05:36:18;15.60;99.90
63313;DHT22;49442;45.640;13.812;2023-10-19T05:38:43;15.70;99.90
63313;DHT22;49442;45.640;13.812;2023-10-19T05:41:09;15.80;99.90
63313;DHT22;49442;45.640;13.812;2023-10-19T05:43:39;15.80;99.90
63313;DHT22;49442;45.640;13.812;2023-10-19T05:46:05;15.90;99.90
63313;DHT22;49442;45.640;13.812;2023-10-19T05:48:31;15.90;99.90
63313;DHT22;49442;45.640;13.812;2023-10-19T05:50:57;15.90;99.90
63313;DHT22;49442;45.640;13.812;2023-10-19T05:53:22;15.90;99.90
63313;DHT22;49442;45.640;13.812;2023-10-19T05:55:49;15.90;99.90
63313;DHT22;49442;45.640;13.812;2023-10-19T05:58:15;15.90;99.90
63313;DHT22;49442;45.640;13.812;2023-10-19T06:00:42;15.90;99.90
63313;DHT22;49442;45.640;13.812;2023-10-19T06:03:08;16.00;99.90
63313;DHT22;49442;45.640;13.812;2023-10-19T06:05:33;16.00;99.90
63313;DHT22;49442;45.640;13.812;2023-10-19T06:07:59;16.00;99.90
63313;DHT22;49442;45.640;13.812;2023-10-19T06:10:27;16.00;99.90
63313;DHT22;49442;45.640;13.812;2023-10-19T06:12:53;16.10;99.90
63313;DHT22;49442;45.640;13.812;2023-10-19T06:15:21;16.10;99.90
63313;DHT22;49442;45.640;13.812;2023-10-19T06:17:48;16.10;99.90
63313;DHT22;49442;45.640;13.812;2023-10-19T06:20:15;16.10;99.90
63313;DHT22;49442;45.640;13.812;2023-10-19T06:22:55;16.10;99.90
63313;DHT22;49442;45.640;13.812;2023-10-19T06:25:23;16.10;99.90
63313;DHT22;49442;45.640;13.812;2023-10-19T06:27:50;16.10;99.90
63313;DHT22;49442;45.640;13.812;2023-10-19T06:30:34;16.10;99.90
63313;DHT22;49442;45.640;13.812;2023-10-19T06:33:00;16.10;99.90
63313;DHT22;49442;45.640;13.812;2023-10-19T06:35:27;16.20;99.90
63313;DHT22;49442;45.640;13.812;2023-10-19T06:37:54;16.20;99.90
63313;DHT22;49442;45.640;13.812;2023-10-19T06:40:24;16.20;99.90
63313;DHT22;49442;45.640;13.812;2023-10-19T06:42:54;16.20;99.90
63313;DHT22;49442;45.640;13.812;2023-10-19T06:45:24;16.20;99.90
63313;DHT22;49442;45.640;13.812;2023-10-19T06:47:55;16.20;99.90
63313;DHT22;49442;45.640;13.812;2023-10-19T06:50:22;16.20;99.90
63313;DHT22;49442;45.640;13.812;2023-10-19T06:52:48;16.20;99.90
63313;DHT22;49442;45.640;13.812;2023-10-19T06:55:16;16.20;99.90
63313;DHT22;49442;45.640;13.812;2023-10-19T06:57:47;16.20;99.90
63313;DHT22;49442;45.640;13.812;2023-10-19T07:00:17;16.20;99.90
63313;DHT22;49442;45.640;13.812;2023-10-19T07:02:46;16.20;99.90
63313;DHT22;49442;45.640;13.812;2023-10-19T07:05:19;16.30;99.90
63313;DHT22;49442;45.640;13.812;2023-10-19T07:07:51;16.30;99.90
63313;DHT22;49442;45.640;13.812;2023-10-19T07:10:18;16.40;99.90
63313;DHT22;49442;45.640;13.812;2023-10-19T07:12:46;16.40;99.90
63313;DHT22;49442;45.640;13.812;2023-10-19T07:15:13;16.40;99.90
63313;DHT22;49442;45.640;13.812;2023-10-19T07:17:48;16.40;99.90
63313;DHT22;49442;45.640;13.812;2023-10-19T07:20:15;16.30;99.90
63313;DHT22;49442;45.640;13.812;2023-10-19T07:23:03;16.30;99.90
63313;DHT22;49442;45.640;13.812;2023-10-19T07:25:36;16.30;99.90
63313;DHT22;49442;45.640;13.812;2023-10-19T07:28:09;16.30;99.90
63313;DHT22;49442;45.640;13.812;2023-10-19T07:30:35;16.30;99.90
63313;DHT22;49442;45.640;13.812;2023-10-19T07:33:00;16.30;99.90
63313;DHT22;49442;45.640;13.812;2023-10-19T07:35:34;16.30;99.90
63313;DHT22;49442;45.640;13.812;2023-10-19T07:38:00;16.40;99.90
63313;DHT22;49442;45.640;13.812;2023-10-19T07:40:27;16.40;99.90
63313;DHT22;49442;45.640;13.812;2023-10-19T07:42:53;16.30;99.90
63313;DHT22;49442;45.640;13.812;2023-10-19T07:45:20;16.30;99.90
63313;DHT22;49442;45.640;13.812;2023-10-19T07:47:47;16.30;99.90
63313;DHT22;49442;45.640;13.812;2023-10-19T07:50:14;16.30;99.90
63313;DHT22;49442;45.640;13.812;2023-10-19T07:52:50;16.20;99.90
63313;DHT22;49442;45.640;13.812;2023-10-19T07:55:17;16.20;99.90
63313;DHT22;49442;45.640;13.812;2023-10-19T07:57:43;16.20;99.90
63313;DHT22;49442;45.640;13.812;2023-10-19T08:00:11;16.20;99.90
63313;DHT22;49442;45.640;13.812;2023-10-19T08:02:39;16.20;99.90
63313;DHT22;49442;45.640;13.812;2023-10-19T08:05:11;16.20;99.90
63313;DHT22;49442;45.640;13.812;2023-10-19T08:07:37;16.20;99.90
63313;DHT22;49442;45.640;13.812;2023-10-19T08:10:06;16.20;99.90
63313;DHT22;49442;45.640;13.812;2023-10-19T08:12:35;16.20;99.90
63313;DHT22;49442;45.640;13.812;2023-10-19T08:15:01;16.30;99.90
63313;DHT22;49442;45.640;13.812;2023-10-19T08:17:27;16.40;99.90
63313;DHT22;49442;45.640;13.812;2023-10-19T08:19:52;16.40;99.90
63313;DHT22;49442;45.640;13.812;2023-10-19T08:22:18;16.40;99.90
63313;DHT22;49442;45.640;13.812;2023-10-19T08:24:44;16.40;99.90
63313;DHT22;49442;45.640;13.812;2023-10-19T08:27:11;16.40;99.90
63313;DHT22;49442;45.640;13.812;2023-10-19T08:29:38;16.40;99.90
63313;DHT22;49442;45.640;13.812;2023-10-19T08:32:05;16.40;99.90
63313;DHT22;49442;45.640;13.812;2023-10-19T08:34:35;16.40;99.90
63313;DHT22;49442;45.640;13.812;2023-10-19T08:37:02;16.40;99.90
63313;DHT22;49442;45.640;13.812;2023-10-19T08:39:28;16.50;99.90
63313;DHT22;49442;45.640;13.812;2023-10-19T08:41:53;16.50;99.90
63313;DHT22;49442;45.640;13.812;2023-10-19T08:44:21;16.50;99.90
63313;DHT22;49442;45.640;13.812;2023-10-19T08:46:47;16.50;99.90
63313;DHT22;49442;45.640;13.812;2023-10-19T08:49:14;16.50;99.90
63313;DHT22;49442;45.640;13.812;2023-10-19T08:51:43;16.50;99.90
63313;DHT22;49442;45.640;13.812;2023-10-19T08:54:15;16.50;99.90
63313;DHT22;49442;45.640;13.812;2023-10-19T08:56:41;16.50;99.90
63313;DHT22;49442;45.640;13.812;2023-10-19T08:59:08;16.50;99.90
63313;DHT22;49442;45.640;13.812;2023-10-19T09:01:36;16.50;99.90
63313;DHT22;49442;45.640;13.812;2023-10-19T09:04:03;16.50;99.90
63313;DHT22;49442;45.640;13.812;2023-10-19T09:06:34;16.60;99.90
63313;DHT22;49442;45.640;13.812;2023-10-19T09:09:12;16.60;99.90
63313;DHT22;49442;45.640;13.812;2023-10-19T09:11:48;16.70;99.90
63313;DHT22;49442;45.640;13.812;2023-10-19T09:14:34;16.70;99.90
63313;DHT22;49442;45.640;13.812;2023-10-19T09:17:01;16.70;99.90
63313;DHT22;49442;45.640;13.812;2023-10-19T09:19:42;16.80;99.90
63313;DHT22;49442;45.640;13.812;2023-10-19T09:22:09;16.80;99.90
63313;DHT22;49442;45.640;13.812;2023-10-19T09:24:49;16.80;99.90
63313;DHT22;49442;45.640;13.812;2023-10-19T09:27:18;16.90;99.90
63313;DHT22;49442;45.640;13.812;2023-10-19T09:29:48;16.90;99.90
63313;DHT22;49442;45.640;13.812;2023-10-19T09:32:15;16.90;99.90
63313;DHT22;49442;45.640;13.812;2023-10-19T09:34:44;16.90;99.90
63313;DHT22;49442;45.640;13.812;2023-10-19T09:37:11;16.90;99.90
63313;DHT22;49442;45.640;13.812;2023-10-19T09:39:37;16.90;99.90
63313;DHT22;49442;45.640;13.812;2023-10-19T09:42:07;17.00;99.90
63313;DHT22;49442;45.640;13.812;2023-10-19T09:44:48;17.00;99.90
63313;DHT22;49442;45.640;13.812;2023-10-19T09:47:30;17.10;99.90
63313;DHT22;49442;45.640;13.812;2023-10-19T09:50:03;17.10;99.90
63313;DHT22;49442;45.640;13.812;2023-10-19T09:52:33;17.00;99.90
63313;DHT22;49442;45.640;13.812;2023-10-19T09:55:06;17.00;99.90
63313;DHT22;49442;45.640;13.812;2023-10-19T09:57:56;17.10;99.90
63313;DHT22;49442;45.640;13.812;2023-10-19T10:00:24;17.10;99.90
63313;DHT22;49442;45.640;13.812;2023-10-19T10:02:51;17.00;99.90
63313;DHT22;49442;45.640;13.812;2023-10-19T10:10:48;17.00;99.90
63313;DHT22;49442;45.640;13.812;2023-10-19T10:15:51;17.00;99.90
63313;DHT22;49442;45.640;13.812;2023-10-19T10:18:18;17.00;99.90
63313;DHT22;49442;45.640;13.812;2023-10-19T10:20:43;17.00;99.90
63313;DHT22;49442;45.640;13.812;2023-10-19T10:23:20;17.00;99.90
63313;DHT22;49442;45.640;13.812;2023-10-19T10:25:52;17.10;99.90
63313;DHT22;49442;45.640;13.812;2023-10-19T10:28:19;17.10;99.90
63313;DHT22;49442;45.640;13.812;2023-10-19T10:31:13;17.10;99.90
63313;DHT22;49442;45.640;13.812;2023-10-19T10:33:43;17.10;99.90
63313;DHT22;49442;45.640;13.812;2023-10-19T10:36:11;17.10;99.90
63313;DHT22;49442;45.640;13.812;2023-10-19T10:38:37;17.10;99.90
63313;DHT22;49442;45.640;13.812;2023-10-19T10:41:03;17.10;99.90
63313;DHT22;49442;45.640;13.812;2023-10-19T10:43:29;17.10;99.90
63313;DHT22;49442;45.640;13.812;2023-10-19T10:46:05;17.20;99.90
63313;DHT22;49442;45.640;13.812;2023-10-19T10:48:32;17.30;99.90
63313;DHT22;49442;45.640;13.812;2023-10-19T10:50:58;17.40;99.90
63313;DHT22;49442;45.640;13.812;2023-10-19T10:53:24;17.40;99.90
63313;DHT22;49442;45.640;13.812;2023-10-19T10:55:52;17.50;99.90
63313;DHT22;49442;45.640;13.812;2023-10-19T10:58:18;17.50;99.90
63313;DHT22;49442;45.640;13.812;2023-10-19T11:00:45;17.50;99.90
63313;DHT22;49442;45.640;13.812;2023-10-19T11:03:16;17.50;99.90
63313;DHT22;49442;45.640;13.812;2023-10-19T11:05:43;17.50;99.90
63313;DHT22;49442;45.640;13.812;2023-10-19T11:08:14;17.40;99.90
63313;DHT22;49442;45.640;13.812;2023-10-19T11:10:46;17.40;99.90
63313;DHT22;49442;45.640;13.812;2023-10-19T11:13:15;17.30;99.90
63313;DHT22;49442;45.640;13.812;2023-10-19T11:15:49;17.30;99.90
63313;DHT22;49442;45.640;13.812;2023-10-19T11:20:56;17.10;99.90
63313;DHT22;49442;45.640;13.812;2023-10-19T11:23:45;17.00;99.90
63313;DHT22;49442;45.640;13.812;2023-10-19T11:26:12;17.00;99.90
63313;DHT22;49442;45.640;13.812;2023-10-19T11:28:39;17.00;99.90
63313;DHT22;49442;45.640;13.812;2023-10-19T11:33:46;17.00;99.90
63313;DHT22;49442;45.640;13.812;2023-10-19T11:36:14;17.00;99.90
63313;DHT22;49442;45.640;13.812;2023-10-19T11:38:42;16.90;99.90
63313;DHT22;49442;45.640;13.812;2023-10-19T11:41:08;17.00;99.90
63313;DHT22;49442;45.640;13.812;2023-10-19T11:43:35;17.00;99.90
63313;DHT22;49442;45.640;13.812;2023-10-19T11:46:01;17.00;99.90
63313;DHT22;49442;45.640;13.812;2023-10-19T11:48:30;17.00;99.90
63313;DHT22;49442;45.640;13.812;2023-10-19T11:50:56;17.00;99.90
63313;DHT22;49442;45.640;13.812;2023-10-19T11:53:21;17.00;99.90
63313;DHT22;49442;45.640;13.812;2023-10-19T11:55:47;17.00;99.90
63313;DHT22;49442;45.640;13.812;2023-10-19T11:58:14;17.00;99.90
63313;DHT22;49442;45.640;13.812;2023-10-19T12:00:42;17.00;99.90
63313;DHT22;49442;45.640;13.812;2023-10-19T12:03:12;17.00;99.90
63313;DHT22;49442;45.640;13.812;2023-10-19T12:05:38;17.00;99.90
63313;DHT22;49442;45.640;13.812;2023-10-19T12:08:04;17.00;99.90
63313;DHT22;49442;45.640;13.812;2023-10-19T12:10:30;17.00;99.90
63313;DHT22;49442;45.640;13.812;2023-10-19T12:13:04;17.00;99.90
63313;DHT22;49442;45.640;13.812;2023-10-19T12:15:34;17.00;99.90
63313;DHT22;49442;45.640;13.812;2023-10-19T12:18:01;17.00;99.90
63313;DHT22;49442;45.640;13.812;2023-10-19T12:20:31;16.90;99.90
63313;DHT22;49442;45.640;13.812;2023-10-19T12:22:59;16.90;99.90
63313;DHT22;49442;45.640;13.812;2023-10-19T12:25:26;16.90;99.90
63313;DHT22;49442;45.640;13.812;2023-10-19T12:27:56;16.90;99.90
63313;DHT22;49442;45.640;13.812;2023-10-19T12:30:22;16.90;99.90
63313;DHT22;49442;45.640;13.812;2023-10-19T12:32:52;17.00;99.90
63313;DHT22;49442;45.640;13.812;2023-10-19T12:35:18;17.00;99.90
63313;DHT22;49442;45.640;13.812;2023-10-19T12:37:53;17.00;99.90
63313;DHT22;49442;45.640;13.812;2023-10-19T12:40:18;17.00;99.90
63313;DHT22;49442;45.640;13.812;2023-10-19T12:42:55;17.00;99.90
63313;DHT22;49442;45.640;13.812;2023-10-19T12:45:24;17.00;99.90
63313;DHT22;49442;45.640;13.812;2023-10-19T12:47:53;17.10;99.90
63313;DHT22;49442;45.640;13.812;2023-10-19T12:50:19;17.10;99.90
63313;DHT22;49442;45.640;13.812;2023-10-19T12:52:50;17.10;99.90
63313;DHT22;49442;45.640;13.812;2023-10-19T12:55:17;17.00;99.90
63313;DHT22;49442;45.640;13.812;2023-10-19T12:57:43;17.00;99.90
63313;DHT22;49442;45.640;13.812;2023-10-19T13:00:09;17.00;99.90
63313;DHT22;49442;45.640;13.812;2023-10-19T13:02:54;17.00;99.90
63313;DHT22;49442;45.640;13.812;2023-10-19T13:05:35;17.00;99.90
63313;DHT22;49442;45.640;13.812;2023-10-19T13:08:01;17.00;99.90
63313;DHT22;49442;45.640;13.812;2023-10-19T13:10:31;17.00;99.90
63313;DHT22;49442;45.640;13.812;2023-10-19T13:12:59;17.10;99.90
63313;DHT22;49442;45.640;13.812;2023-10-19T13:15:26;17.10;99.90
63313;DHT22;49442;45.640;13.812;2023-10-19T13:17:56;17.10;99.90
63313;DHT22;49442;45.640;13.812;2023-10-19T13:20:25;17.00;99.90
63313;DHT22;49442;45.640;13.812;2023-10-19T13:22:52;17.00;99.90
63313;DHT22;49442;45.640;13.812;2023-10-19T13:25:18;17.00;99.90
63313;DHT22;49442;45.640;13.812;2023-10-19T13:27:44;17.00;99.90
63313;DHT22;49442;45.640;13.812;2023-10-19T13:30:11;17.00;99.90
63313;DHT22;49442;45.640;13.812;2023-10-19T13:32:40;17.00;99.90
63313;DHT22;49442;45.640;13.812;2023-10-19T13:35:07;17.00;99.90
63313;DHT22;49442;45.640;13.812;2023-10-19T13:37:33;17.00;99.90
63313;DHT22;49442;45.640;13.812;2023-10-19T13:39:58;17.10;99.90
63313;DHT22;49442;45.640;13.812;2023-10-19T13:42:30;17.10;99.90
63313;DHT22;49442;45.640;13.812;2023-10-19T13:44:55;17.10;99.90
63313;DHT22;49442;45.640;13.812;2023-10-19T13:47:22;17.10;99.90
63313;DHT22;49442;45.640;13.812;2023-10-19T13:49:47;17.20;99.90
63313;DHT22;49442;45.640;13.812;2023-10-19T13:52:13;17.20;99.90
63313;DHT22;49442;45.640;13.812;2023-10-19T13:54:40;17.20;99.90
63313;DHT22;49442;45.640;13.812;2023-10-19T13:57:06;17.20;99.90
63313;DHT22;49442;45.640;13.812;2023-10-19T13:59:32;17.30;99.90
63313;DHT22;49442;45.640;13.812;2023-10-19T14:02:00;17.20;99.90
63313;DHT22;49442;45.640;13.812;2023-10-19T14:04:26;17.20;99.90
63313;DHT22;49442;45.640;13.812;2023-10-19T14:06:52;17.30;99.90
63313;DHT22;49442;45.640;13.812;2023-10-19T14:09:19;17.20;99.90
63313;DHT22;49442;45.640;13.812;2023-10-19T14:11:45;17.30;99.90
63313;DHT22;49442;45.640;13.812;2023-10-19T14:14:11;17.30;99.90
63313;DHT22;49442;45.640;13.812;2023-10-19T14:16:37;17.30;99.90
63313;DHT22;49442;45.640;13.812;2023-10-19T14:19:04;17.30;99.90
63313;DHT22;49442;45.640;13.812;2023-10-19T14:21:30;17.30;99.90
63313;DHT22;49442;45.640;13.812;2023-10-19T14:23:56;17.30;99.90
63313;DHT22;49442;45.640;13.812;2023-10-19T14:26:22;17.30;99.90
63313;DHT22;49442;45.640;13.812;2023-10-19T14:28:48;17.30;99.90
63313;DHT22;49442;45.640;13.812;2023-10-19T14:31:15;17.30;99.90
63313;DHT22;49442;45.640;13.812;2023-10-19T14:33:42;17.20;99.90
63313;DHT22;49442;45.640;13.812;2023-10-19T14:36:09;17.20;99.90
63313;DHT22;49442;45.640;13.812;2023-10-19T14:38:34;17.30;99.90
63313;DHT22;49442;45.640;13.812;2023-10-19T14:41:01;17.30;99.90
63313;DHT22;49442;45.640;13.812;2023-10-19T14:43:27;17.20;99.90
63313;DHT22;49442;45.640;13.812;2023-10-19T14:45:55;17.20;99.90
63313;DHT22;49442;45.640;13.812;2023-10-19T14:48:23;17.30;99.90
63313;DHT22;49442;45.640;13.812;2023-10-19T14:50:49;17.30;99.90
63313;DHT22;49442;45.640;13.812;2023-10-19T14:53:17;17.30;99.90
63313;DHT22;49442;45.640;13.812;2023-10-19T14:55:46;17.20;99.90
63313;DHT22;49442;45.640;13.812;2023-10-19T14:58:12;17.20;99.90
63313;DHT22;49442;45.640;13.812;2023-10-19T15:00:37;17.30;99.90
63313;DHT22;49442;45.640;13.812;2023-10-19T15:03:08;17.30;99.90
63313;DHT22;49442;45.640;13.812;2023-10-19T15:05:35;17.30;99.90
63313;DHT22;49442;45.640;13.812;2023-10-19T15:08:02;17.30;99.90
63313;DHT22;49442;45.640;13.812;2023-10-19T15:10:28;17.20;99.90
63313;DHT22;49442;45.640;13.812;2023-10-19T15:12:54;17.30;99.90
63313;DHT22;49442;45.640;13.812;2023-10-19T15:15:22;17.20;99.90
63313;DHT22;49442;45.640;13.812;2023-10-19T15:17:48;17.20;99.90
63313;DHT22;49442;45.640;13.812;2023-10-19T15:20:24;17.20;99.90
63313;DHT22;49442;45.640;13.812;2023-10-19T15:22:51;17.20;99.90
63313;DHT22;49442;45.640;13.812;2023-10-19T15:25:17;17.20;99.90
63313;DHT22;49442;45.640;13.812;2023-10-19T15:27:47;17.30;99.90
63313;DHT22;49442;45.640;13.812;2023-10-19T15:30:14;17.20;99.90
63313;DHT22;49442;45.640;13.812;2023-10-19T15:32:41;17.20;99.90
63313;DHT22;49442;45.640;13.812;2023-10-19T15:35:09;17.20;99.90
63313;DHT22;49442;45.640;13.812;2023-10-19T15:37:35;17.20;99.90
63313;DHT22;49442;45.640;13.812;2023-10-19T15:40:02;17.20;99.90
63313;DHT22;49442;45.640;13.812;2023-10-19T15:42:30;17.20;99.90
63313;DHT22;49442;45.640;13.812;2023-10-19T15:44:56;17.20;99.90